createdAt,value
2022-08-09T00:01:10.460Z,4.20
2022-08-09T00:04:05.874Z,4.53
2022-08-09T00:06:27.876Z,4.32
2022-08-09T00:08:57.511Z,4.35
2022-08-09T00:11:27.720Z,4.25
2022-08-09T00:14:11.489Z,4.53
2022-08-09T00:16:44.727Z,4.93
2022-08-09T00:19:14.248Z,4.72
2022-08-09T00:21:56.247Z,4.68
2022-08-09T00:24:24.596Z,4.68
2022-08-09T00:26:51.665Z,4.40
2022-08-09T00:29:39.875Z,4.20
2022-08-09T00:32:06.074Z,4.65
2022-08-09T00:34:32.769Z,4.35
2022-08-09T00:37:00.849Z,3.88
2022-08-09T00:40:13.927Z,3.92
2022-08-09T00:44:18.856Z,4.63
2022-08-09T00:45:03.542Z,4.50
2022-08-09T00:47:42.259Z,4.97
2022-08-09T00:50:14.761Z,4.50
2022-08-09T00:52:41.880Z,5.07
2022-08-09T00:55:09.144Z,4.82
2022-08-09T00:57:43.512Z,5.05
2022-08-09T01:00:21.625Z,5.30
2022-08-09T01:05:51.644Z,5.15
2022-08-09T01:08:29.215Z,4.85
2022-08-09T01:11:15.873Z,5.00
2022-08-09T01:13:59.258Z,5.13
2022-08-09T01:16:40.731Z,5.22
2022-08-09T01:19:43.000Z,5.78
2022-08-09T01:22:24.902Z,5.60
2022-08-09T01:25:07.422Z,5.78
2022-08-09T01:27:36.177Z,5.90
2022-08-09T01:30:07.162Z,6.32
2022-08-09T01:32:43.752Z,6.15
2022-08-09T01:35:37.302Z,6.07
2022-08-09T01:38:15.098Z,6.05
2022-08-09T01:40:52.360Z,5.93
2022-08-09T01:43:19.565Z,6.03
2022-08-09T01:45:52.146Z,5.70
2022-08-09T01:48:19.565Z,5.80
2022-08-09T01:50:55.168Z,5.90
2022-08-09T01:53:29.318Z,5.60
2022-08-09T01:56:09.933Z,6.13
2022-08-09T01:58:37.684Z,6.15
2022-08-09T02:01:05.579Z,5.38
2022-08-09T02:03:36.806Z,5.63
2022-08-09T02:06:06.911Z,6.18
2022-08-09T02:08:57.558Z,5.68
2022-08-09T02:11:42.687Z,5.28
2022-08-09T02:14:15.109Z,5.60
2022-08-09T02:17:15.062Z,6.00
2022-08-09T02:19:43.088Z,5.22
2022-08-09T02:22:34.926Z,5.60
2022-08-09T02:25:08.009Z,5.65
2022-08-09T02:27:57.293Z,5.65
2022-08-09T02:30:26.325Z,5.38
2022-08-09T02:32:54.927Z,5.65
2022-08-09T02:36:01.653Z,5.15
2022-08-09T02:38:21.746Z,5.50
2022-08-09T02:40:49.106Z,5.35
2022-08-09T02:43:21.056Z,5.18
2022-08-09T02:45:49.718Z,6.38
2022-08-09T02:48:30.492Z,6.00
2022-08-09T02:51:02.578Z,5.53
2022-08-09T02:53:53.089Z,5.47
2022-08-09T02:56:28.152Z,5.97
2022-08-09T02:58:55.986Z,5.78
2022-08-09T03:01:29.334Z,5.53
2022-08-09T03:04:17.806Z,5.63
2022-08-09T03:06:49.131Z,5.60
2022-08-09T03:09:17.371Z,5.88
2022-08-09T03:12:05.765Z,5.63
2022-08-09T03:14:32.057Z,5.68
2022-08-09T03:17:01.790Z,5.93
2022-08-09T03:19:58.471Z,5.85
2022-08-09T03:22:25.005Z,5.88
2022-08-09T03:25:00.269Z,5.47
2022-08-09T03:27:44.771Z,4.95
2022-08-09T03:30:12.439Z,5.55
2022-08-09T03:32:40.460Z,5.30
2022-08-09T03:35:15.048Z,5.32
2022-08-09T03:37:55.673Z,5.57
2022-08-09T03:40:25.035Z,4.95
2022-08-09T03:42:51.578Z,5.22
2022-08-09T03:46:04.164Z,4.90
2022-08-09T03:48:05.248Z,5.40
2022-08-09T03:50:35.143Z,4.75
2022-08-09T03:53:05.192Z,4.75
2022-08-09T03:55:36.233Z,5.22
2022-08-09T03:58:16.280Z,5.10
2022-08-09T04:00:45.489Z,5.63
2022-08-09T04:03:19.862Z,5.38
2022-08-09T04:05:58.840Z,4.97
2022-08-09T04:08:29.053Z,4.90
2022-08-09T04:10:56.270Z,5.28
2022-08-09T04:13:44.854Z,5.20
2022-08-09T04:16:20.007Z,5.60
2022-08-09T04:18:47.773Z,5.43
2022-08-09T04:21:15.870Z,4.90
2022-08-09T04:23:54.081Z,5.43
2022-08-09T04:26:23.956Z,5.40
2022-08-09T04:28:50.480Z,5.35
2022-08-09T04:31:17.226Z,5.53
2022-08-09T04:33:44.012Z,5.85
2022-08-09T04:36:19.517Z,5.50
2022-08-09T04:38:48.058Z,5.43
2022-08-09T04:41:14.539Z,5.68
2022-08-09T04:43:46.591Z,6.00
2022-08-09T04:46:38.071Z,5.82
2022-08-09T04:49:15.122Z,5.47
2022-08-09T04:51:41.611Z,5.80
2022-08-09T04:54:08.121Z,5.88
2022-08-09T04:56:38.734Z,5.82
2022-08-09T04:59:12.934Z,5.97
2022-08-09T05:01:41.896Z,5.45
2022-08-09T05:04:08.524Z,5.90
2022-08-09T05:06:35.878Z,5.85
2022-08-09T05:09:02.625Z,5.65
2022-08-09T05:11:30.565Z,5.68
2022-08-09T05:13:59.285Z,5.80
2022-08-09T05:16:31.751Z,6.10
2022-08-09T05:19:00.262Z,5.80
2022-08-09T05:21:30.072Z,5.55
2022-08-09T05:24:03.896Z,5.45
2022-08-09T05:26:35.321Z,5.68
2022-08-09T05:29:21.721Z,5.07
2022-08-09T05:31:57.170Z,4.93
2022-08-09T05:34:32.529Z,5.45
2022-08-09T05:37:04.950Z,5.82
2022-08-09T05:42:10.224Z,5.05
2022-08-09T05:44:44.673Z,5.15
2022-08-09T05:47:14.255Z,5.45
2022-08-09T05:50:35.033Z,5.22
2022-08-09T05:52:27.571Z,5.93
2022-08-09T05:54:57.268Z,5.13
2022-08-09T05:57:55.841Z,5.20
2022-08-09T06:00:16.650Z,5.00
2022-08-09T06:02:46.667Z,7.32
2022-08-09T06:05:13.649Z,6.05
2022-08-09T06:07:40.229Z,5.13
2022-08-09T06:10:15.936Z,4.75
2022-08-09T06:12:44.568Z,4.82
2022-08-09T06:15:17.341Z,4.65
2022-08-09T06:17:43.822Z,4.22
2022-08-09T06:20:13.317Z,4.00
2022-08-09T06:22:45.672Z,4.60
2022-08-09T06:25:12.480Z,4.40
2022-08-09T06:27:51.690Z,3.80
2022-08-09T06:30:18.654Z,3.92
2022-08-09T06:33:13.680Z,4.40
2022-08-09T06:35:56.520Z,4.25
2022-08-09T06:38:19.214Z,4.30
2022-08-09T06:40:46.076Z,4.32
2022-08-09T06:43:13.628Z,3.97
2022-08-09T06:46:05.558Z,4.00
2022-08-09T06:48:30.389Z,3.95
2022-08-09T06:50:57.418Z,3.60
2022-08-09T06:53:24.872Z,4.07
2022-08-09T06:55:52.151Z,3.83
2022-08-09T06:58:46.247Z,4.22
2022-08-09T07:01:06.204Z,3.85
2022-08-09T07:03:39.534Z,4.15
2022-08-09T07:06:19.981Z,4.57
2022-08-09T07:08:49.576Z,3.70
2022-08-09T07:11:17.595Z,4.35
2022-08-09T07:14:04.382Z,4.13
2022-08-09T07:16:42.831Z,3.55
2022-08-09T07:19:18.615Z,3.67
2022-08-09T07:21:55.802Z,3.90
2022-08-09T07:24:32.129Z,3.60
2022-08-09T07:27:10.936Z,3.70
2022-08-09T07:29:56.848Z,3.75
2022-08-09T07:32:32.617Z,4.30
2022-08-09T07:35:02.834Z,3.75
2022-08-09T07:37:43.726Z,3.67
2022-08-09T07:40:20.518Z,3.50
2022-08-09T07:42:56.028Z,3.67
2022-08-09T07:45:39.518Z,3.38
2022-08-09T07:48:28.479Z,3.53
2022-08-09T07:51:10.327Z,3.50
2022-08-09T07:54:05.204Z,3.38
2022-08-09T07:56:33.642Z,3.53
2022-08-09T07:59:00.354Z,3.30
2022-08-09T08:01:33.044Z,3.47
2022-08-09T08:06:31.944Z,3.10
2022-08-09T08:09:04.586Z,3.10
2022-08-09T08:12:11.582Z,2.83
2022-08-09T08:14:18.423Z,2.80
2022-08-09T08:17:00.961Z,3.10
2022-08-09T08:19:34.322Z,2.72
2022-08-09T08:22:01.701Z,2.50
2022-08-09T08:24:34.165Z,3.05
2022-08-09T08:27:16.492Z,4.28
2022-08-09T08:29:48.467Z,3.63
2022-08-09T08:32:24.335Z,2.95
2022-08-09T08:35:02.962Z,2.90
2022-08-09T08:37:41.327Z,2.70
2022-08-09T08:40:16.897Z,2.60
2022-08-09T08:42:47.201Z,2.67
2022-08-09T08:45:16.589Z,2.85
2022-08-09T08:47:45.029Z,2.38
2022-08-09T08:50:17.961Z,2.47
2022-08-09T08:53:00.078Z,2.20
2022-08-09T08:55:28.290Z,2.95
2022-08-09T08:57:58.997Z,2.50
2022-08-09T09:00:34.636Z,2.47
2022-08-09T09:03:08.266Z,2.25
2022-08-09T09:05:58.883Z,2.38
2022-08-09T09:08:30.198Z,2.30
2022-08-09T09:10:59.486Z,2.90
2022-08-09T09:13:41.641Z,2.83
2022-08-09T09:16:12.698Z,2.70
2022-08-09T09:18:45.817Z,2.38
2022-08-09T09:21:15.582Z,2.63
2022-08-09T09:23:50.009Z,2.20
2022-08-09T09:26:26.167Z,2.63
2022-08-09T09:29:04.128Z,2.92
2022-08-09T09:32:03.848Z,2.63
2022-08-09T09:34:24.012Z,2.50
2022-08-09T09:36:56.241Z,2.40
2022-08-09T09:39:25.561Z,2.45
2022-08-09T09:42:22.326Z,2.72
2022-08-09T09:44:57.481Z,2.50
2022-08-09T09:47:24.525Z,2.40
2022-08-09T09:50:13.797Z,2.55
2022-08-09T09:52:53.618Z,2.75
2022-08-09T09:55:31.334Z,2.45
2022-08-09T09:58:17.010Z,2.33
2022-08-09T10:00:59.452Z,2.50
2022-08-09T10:03:42.799Z,2.58
2022-08-09T10:06:11.712Z,2.25
2022-08-09T10:08:54.130Z,2.58
2022-08-09T10:12:00.043Z,2.58
2022-08-09T10:14:26.090Z,2.28
2022-08-09T10:17:00.329Z,2.40
2022-08-09T10:19:38.728Z,2.30
2022-08-09T10:22:06.966Z,2.60
2022-08-09T10:24:36.144Z,2.70
2022-08-09T10:27:03.437Z,2.25
2022-08-09T10:30:43.642Z,2.13
2022-08-09T10:32:50.398Z,2.42
2022-08-09T10:35:13.303Z,2.40
2022-08-09T10:37:40.089Z,3.53
2022-08-09T10:40:12.122Z,2.50
2022-08-09T10:42:56.006Z,2.70
2022-08-09T10:45:23.441Z,2.35
2022-08-09T10:48:26.183Z,2.75
2022-08-09T10:51:09.727Z,2.20
2022-08-09T10:53:59.560Z,3.00
2022-08-09T10:56:33.689Z,2.10
2022-08-09T10:59:23.370Z,2.40
2022-08-09T11:03:13.390Z,2.33
2022-08-09T11:05:25.287Z,2.55
2022-08-09T11:07:59.012Z,2.72
2022-08-09T11:10:54.617Z,2.10
2022-08-09T11:13:50.511Z,2.38
2022-08-09T11:16:37.741Z,2.72
2022-08-09T11:19:07.864Z,2.35
2022-08-09T11:21:55.171Z,2.38
2022-08-09T11:25:03.657Z,2.28
2022-08-09T11:28:04.567Z,2.30
2022-08-09T11:30:32.991Z,2.45
2022-08-09T11:33:06.497Z,2.50
2022-08-09T11:36:01.018Z,2.13
2022-08-09T11:38:33.166Z,1.83
2022-08-09T11:41:16.082Z,2.30
2022-08-09T11:43:47.080Z,2.45
2022-08-09T11:46:26.462Z,2.15
2022-08-09T11:49:01.026Z,1.98
2022-08-09T11:53:03.499Z,2.05
2022-08-09T11:55:34.726Z,2.10
2022-08-09T11:58:14.353Z,2.15
2022-08-09T12:00:52.953Z,2.17
2022-08-09T12:03:54.895Z,2.10
2022-08-09T12:06:26.547Z,2.28
2022-08-09T12:08:55.754Z,2.10
2022-08-09T12:11:25.533Z,2.28
2022-08-09T12:14:09.949Z,2.28
2022-08-09T12:16:42.894Z,2.17
2022-08-09T12:19:13.165Z,2.08
2022-08-09T12:21:48.618Z,2.10
2022-08-09T12:24:23.735Z,2.00
2022-08-09T12:29:12.528Z,1.77
2022-08-09T12:29:44.620Z,1.70
2022-08-09T12:32:26.851Z,2.00
2022-08-09T12:34:59.742Z,1.87
2022-08-09T12:37:49.642Z,1.90
2022-08-09T12:40:19.039Z,1.98
2022-08-09T12:42:50.552Z,2.05
2022-08-09T12:45:34.898Z,1.80
2022-08-09T12:48:20.441Z,1.83
2022-08-09T12:50:57.894Z,1.90
2022-08-09T12:53:38.446Z,2.10
2022-08-09T12:56:37.190Z,2.30
2022-08-09T12:59:13.990Z,2.20
2022-08-09T13:01:49.864Z,2.13
2022-08-09T13:04:36.994Z,1.92
2022-08-09T13:07:13.901Z,2.28
2022-08-09T13:09:52.734Z,1.92
2022-08-09T13:12:22.621Z,2.08
2022-08-09T13:14:53.820Z,2.10
2022-08-09T13:17:25.671Z,2.25
2022-08-09T13:20:18.663Z,2.10
2022-08-09T13:23:01.647Z,2.08
2022-08-09T13:25:52.995Z,2.20
2022-08-09T13:28:33.950Z,2.45
2022-08-09T13:32:12.383Z,2.33
2022-08-09T13:33:57.360Z,2.20
2022-08-09T13:36:42.463Z,2.00
2022-08-09T13:41:17.596Z,2.20
2022-08-09T13:42:11.898Z,1.90
2022-08-09T13:44:40.410Z,2.10
2022-08-09T13:47:33.660Z,2.10
2022-08-09T13:50:03.006Z,2.15
2022-08-09T13:52:35.869Z,2.20
2022-08-09T13:55:07.351Z,2.00
2022-08-09T13:57:39.742Z,2.10
2022-08-09T14:00:18.619Z,1.80
2022-08-09T14:03:16.590Z,1.92
2022-08-09T14:05:57.428Z,1.75
2022-08-09T14:08:22.384Z,2.03
2022-08-09T14:10:52.341Z,2.20
2022-08-09T14:13:27.940Z,1.92
2022-08-09T14:16:11.430Z,2.05
2022-08-09T14:18:45.117Z,2.00
2022-08-09T14:21:17.556Z,1.73
2022-08-09T14:23:55.372Z,1.90
2022-08-09T14:26:32.656Z,1.85
2022-08-09T14:29:07.849Z,1.90
2022-08-09T14:31:53.851Z,1.90
2022-08-09T14:34:30.911Z,1.92
2022-08-09T14:37:00.460Z,2.00
2022-08-09T14:39:47.254Z,1.98
2022-08-09T14:42:30.565Z,1.80
2022-08-09T14:46:39.672Z,2.08
2022-08-09T14:47:59.124Z,2.00
2022-08-09T14:50:27.942Z,1.70
2022-08-09T14:52:54.645Z,1.83
2022-08-09T14:55:21.445Z,1.70
2022-08-09T14:57:48.763Z,1.80
2022-08-09T15:00:16.225Z,1.73
2022-08-09T15:02:42.709Z,1.83
2022-08-09T15:05:16.077Z,1.80
2022-08-09T15:07:45.565Z,1.95
2022-08-09T15:10:25.026Z,1.70
2022-08-09T15:12:53.220Z,1.90
2022-08-09T15:15:20.282Z,1.83
2022-08-09T15:17:52.390Z,1.90
2022-08-09T15:21:57.605Z,1.48
2022-08-09T15:23:56.254Z,1.65
2022-08-09T15:25:55.584Z,1.42
2022-08-09T15:28:27.458Z,1.55
2022-08-09T15:31:10.306Z,1.63
2022-08-09T15:34:17.463Z,1.48
2022-08-09T15:36:30.419Z,1.90
2022-08-09T15:39:00.799Z,1.70
2022-08-09T15:41:31.187Z,1.45
2022-08-09T15:44:00.532Z,1.50
2022-08-09T15:46:34.473Z,1.60
2022-08-09T15:49:22.233Z,1.50
2022-08-09T15:52:04.461Z,1.50
2022-08-09T15:54:49.633Z,1.75
2022-08-09T15:57:34.596Z,1.88
2022-08-09T16:00:09.277Z,1.75
2022-08-09T16:02:40.506Z,1.80
2022-08-09T16:05:10.467Z,1.50
2022-08-09T16:07:39.006Z,1.52
2022-08-09T16:10:17.067Z,1.63
2022-08-09T16:12:55.320Z,1.50
2022-08-09T16:16:11.678Z,1.60
2022-08-09T16:18:08.989Z,1.77
2022-08-09T16:20:37.186Z,1.70
2022-08-09T16:23:05.624Z,1.70
2022-08-09T16:25:40.574Z,1.60
2022-08-09T16:28:07.760Z,1.63
2022-08-09T16:30:44.489Z,1.55
2022-08-09T16:33:11.695Z,1.67
2022-08-09T16:35:57.143Z,1.50
2022-08-09T16:38:26.563Z,1.58
2022-08-09T16:40:53.475Z,1.58
2022-08-09T16:43:22.069Z,1.48
2022-08-09T16:45:53.627Z,1.70
2022-08-09T16:48:41.276Z,1.38
2022-08-09T16:51:13.467Z,1.67
2022-08-09T16:54:02.414Z,1.45
2022-08-09T16:56:30.541Z,1.73
2022-08-09T16:58:57.463Z,1.60
2022-08-09T17:01:24.856Z,1.70
2022-08-09T17:03:51.580Z,1.52
2022-08-09T17:06:29.054Z,1.40
2022-08-09T17:09:12.090Z,2.13
2022-08-09T17:11:44.648Z,1.60
2022-08-09T17:14:25.881Z,1.40
2022-08-09T17:16:55.597Z,1.50
2022-08-09T17:19:22.169Z,1.73
2022-08-09T17:21:55.536Z,1.60
2022-08-09T17:24:30.649Z,1.58
2022-08-09T17:26:58.525Z,1.50
2022-08-09T17:29:31.851Z,1.30
2022-08-09T17:32:04.929Z,1.38
2022-08-09T17:35:03.852Z,1.50
2022-08-09T17:37:19.881Z,1.60
2022-08-09T17:39:52.125Z,1.50
2022-08-09T17:42:55.148Z,1.50
2022-08-09T17:45:15.835Z,1.60
2022-08-09T17:47:54.806Z,1.80
2022-08-09T17:50:36.245Z,1.50
2022-08-09T17:53:19.329Z,1.40
2022-08-09T17:55:49.718Z,1.45
2022-08-09T17:58:19.035Z,1.40
2022-08-09T18:00:47.942Z,1.30
2022-08-09T18:03:14.993Z,1.52
2022-08-09T18:05:44.711Z,1.60
2022-08-09T18:08:13.399Z,1.40
2022-08-09T18:10:40.005Z,1.77
2022-08-09T18:13:43.388Z,1.50
2022-08-09T18:16:07.667Z,1.70
2022-08-09T18:18:43.310Z,1.80
2022-08-09T18:21:21.511Z,2.08
2022-08-09T18:24:10.729Z,1.75
2022-08-09T18:26:38.077Z,1.70
2022-08-09T18:30:35.021Z,1.70
2022-08-09T18:31:56.112Z,1.60
2022-08-09T18:34:23.963Z,1.75
2022-08-09T18:36:50.687Z,1.70
2022-08-09T18:39:22.209Z,1.50
2022-08-09T18:41:53.150Z,1.70
2022-08-09T18:44:22.893Z,1.50
2022-08-09T18:47:04.927Z,1.60
2022-08-09T18:49:43.841Z,1.90
2022-08-09T18:52:15.889Z,1.70
2022-08-09T18:54:52.272Z,1.60
2022-08-09T18:57:19.932Z,1.83
2022-08-09T18:59:56.374Z,1.70
2022-08-09T19:02:31.913Z,1.67
2022-08-09T19:05:04.145Z,1.80
2022-08-09T19:07:59.039Z,2.03
2022-08-09T19:10:29.314Z,2.00
2022-08-09T19:13:20.114Z,1.90
2022-08-09T19:15:49.935Z,1.90
2022-08-09T19:18:33.326Z,1.80
2022-08-09T19:21:09.615Z,2.03
2022-08-09T19:24:33.205Z,2.20
2022-08-09T19:26:31.201Z,2.45
2022-08-09T19:29:01.773Z,2.55
2022-08-09T19:31:30.447Z,2.70
2022-08-09T19:34:10.246Z,2.70
2022-08-09T19:36:50.380Z,3.70
2022-08-09T19:39:17.171Z,2.88
2022-08-09T19:41:47.454Z,2.50
2022-08-09T19:44:15.335Z,2.17
2022-08-09T19:46:50.603Z,2.50
2022-08-09T19:50:09.906Z,2.33
2022-08-09T19:52:07.957Z,2.47
2022-08-09T19:54:34.878Z,2.40
2022-08-09T19:57:02.153Z,2.28
2022-08-09T19:59:58.019Z,2.45
2022-08-09T20:04:08.389Z,2.42
2022-08-09T20:05:10.172Z,1.90
2022-08-09T20:08:00.139Z,2.70
2022-08-09T20:10:36.822Z,2.28
2022-08-09T20:13:06.126Z,2.17
2022-08-09T20:16:33.707Z,1.85
2022-08-09T20:18:22.147Z,1.90
2022-08-09T20:20:50.421Z,1.85
2022-08-09T20:23:19.543Z,2.00
2022-08-09T20:25:52.370Z,2.45
2022-08-09T20:28:34.270Z,2.30
2022-08-09T20:31:02.646Z,1.83
2022-08-09T20:33:40.926Z,2.00
2022-08-09T20:36:08.611Z,2.08
2022-08-09T20:38:50.412Z,1.70
2022-08-09T20:41:32.030Z,1.80
2022-08-09T20:44:01.806Z,2.00
2022-08-09T20:46:42.031Z,1.98
2022-08-09T20:49:10.419Z,2.22
2022-08-09T20:51:41.118Z,2.00
2022-08-09T20:54:08.438Z,1.80
2022-08-09T20:56:39.476Z,2.00
2022-08-09T20:59:07.799Z,2.00
2022-08-09T21:01:50.367Z,2.08
2022-08-09T21:05:54.546Z,1.90
2022-08-09T21:07:11.498Z,2.50
2022-08-09T21:09:46.029Z,2.17
2022-08-09T21:15:12.877Z,2.20
2022-08-09T21:18:23.068Z,2.08
2022-08-09T21:20:29.947Z,2.08
2022-08-09T21:22:57.503Z,2.10
2022-08-09T21:25:44.399Z,2.03
2022-08-09T21:28:33.352Z,1.95
2022-08-09T21:31:02.226Z,2.42
2022-08-09T21:33:49.463Z,2.03
2022-08-09T21:36:17.716Z,2.25
2022-08-09T21:38:45.444Z,2.15
2022-08-09T21:41:17.992Z,2.40
2022-08-09T21:43:56.641Z,1.88
2022-08-09T21:46:24.545Z,2.03
2022-08-09T21:48:51.974Z,2.22
2022-08-09T21:51:35.980Z,2.17
2022-08-09T21:54:06.131Z,2.00
2022-08-09T21:56:42.948Z,2.13
2022-08-09T21:59:11.468Z,2.25
2022-08-09T22:01:58.933Z,2.25
2022-08-09T22:04:37.554Z,2.13
2022-08-09T22:07:23.311Z,2.40
2022-08-09T22:10:01.198Z,2.15
2022-08-09T22:12:32.708Z,2.17
2022-08-09T22:15:00.072Z,2.40
2022-08-09T22:17:32.081Z,1.98
2022-08-09T22:20:01.031Z,2.15
2022-08-09T22:22:28.789Z,2.15
2022-08-09T22:26:08.691Z,1.80
2022-08-09T22:27:42.285Z,2.50
2022-08-09T22:30:09.377Z,2.10
2022-08-09T22:32:35.966Z,2.38
2022-08-09T22:35:06.621Z,2.40
2022-08-09T22:38:06.669Z,2.45
2022-08-09T22:40:34.655Z,2.30
2022-08-09T22:43:01.420Z,2.40
2022-08-09T22:48:12.379Z,3.05
2022-08-09T22:48:34.410Z,2.30
2022-08-09T22:51:01.231Z,2.55
2022-08-09T22:53:58.186Z,2.30
2022-08-09T22:56:33.797Z,2.30
2022-08-09T22:59:05.855Z,2.90
2022-08-09T23:01:48.896Z,2.65
2022-08-09T23:04:15.477Z,2.70
2022-08-09T23:07:02.369Z,2.40
2022-08-09T23:09:28.980Z,2.40
2022-08-09T23:11:55.579Z,2.75
2022-08-09T23:14:36.270Z,2.72
2022-08-09T23:17:08.609Z,2.50
2022-08-09T23:20:02.458Z,2.58
2022-08-09T23:22:21.760Z,2.42
2022-08-09T23:24:48.836Z,2.70
2022-08-09T23:27:15.811Z,3.65
2022-08-09T23:29:42.335Z,3.65
2022-08-09T23:32:08.944Z,3.67
2022-08-09T23:34:36.658Z,3.65
2022-08-09T23:37:04.639Z,3.83
2022-08-09T23:39:31.211Z,2.70
2022-08-09T23:41:57.922Z,2.55
2022-08-09T23:44:27.362Z,2.80
2022-08-09T23:46:57.276Z,2.80
2022-08-09T23:49:25.556Z,2.78
2022-08-09T23:51:53.312Z,3.03
2022-08-09T23:54:20.585Z,2.60
2022-08-09T23:56:53.920Z,2.50
2022-08-09T23:59:23.029Z,2.88
